Time;durP1;ratioP1;P1;durP2;ratioP2;P2;SDS_P1;SDS_P2;PMS_P1;PMS_P2;Temp;Humidity;BMP_temperature;BMP_pressure;BME280_temperature;BME280_humidity;BME280_pressure;Samples;Min_cycle;Max_cycle;Signal;HPM_P1;HPM_P2
2023/06/05 00:02:11;;;;;;;2.38;1.77;;;11.50;99.90;;;;;;5107554;28;20072;-80
2023/06/05 00:04:36;;;;;;;2.78;1.70;;;11.40;99.90;;;;;;5108701;28;20042;-80
2023/06/05 00:07:02;;;;;;;3.28;1.85;;;11.40;99.90;;;;;;5112972;28;20027;-80
2023/06/05 00:09:28;;;;;;;3.13;1.90;;;11.40;99.90;;;;;;5107363;28;20621;-80
2023/06/05 00:11:53;;;;;;;1.35;1.25;;;11.40;99.90;;;;;;5117454;28;20119;-80
2023/06/05 00:14:22;;;;;;;3.85;1.60;;;11.40;99.90;;;;;;5106129;28;20027;-80
2023/06/05 00:16:50;;;;;;;4.80;1.75;;;11.30;99.90;;;;;;5112605;28;20031;-80
2023/06/05 00:19:15;;;;;;;2.58;1.63;;;11.30;99.90;;;;;;5112457;28;20024;-80
2023/06/05 00:21:41;;;;;;;2.90;1.90;;;11.20;99.90;;;;;;5100901;28;20027;-80
2023/06/05 00:24:06;;;;;;;2.08;1.40;;;11.20;99.90;;;;;;5108624;28;20469;-80
2023/06/05 00:26:32;;;;;;;1.63;1.40;;;11.20;99.90;;;;;;5103525;27;20036;-80
2023/06/05 00:28:57;;;;;;;1.60;1.50;;;11.20;99.90;;;;;;5116458;27;20020;-80
2023/06/05 00:31:23;;;;;;;2.47;1.75;;;11.10;99.90;;;;;;5114945;27;20126;-80
2023/06/05 00:33:50;;;;;;;3.63;1.60;;;11.10;99.90;;;;;;5111640;27;20269;-80
2023/06/05 00:36:17;;;;;;;3.50;1.83;;;11.10;99.90;;;;;;5113456;27;20020;-80
2023/06/05 00:38:43;;;;;;;2.85;2.03;;;11.10;99.90;;;;;;5108726;27;20473;-79
2023/06/05 00:41:08;;;;;;;2.53;2.05;;;11.10;99.90;;;;;;5117852;27;20015;-81
2023/06/05 00:43:34;;;;;;;2.65;1.70;;;11.10;99.90;;;;;;5114976;27;20380;-80
2023/06/05 00:46:02;;;;;;;3.08;1.65;;;11.10;99.90;;;;;;5114705;27;20036;-80
2023/06/05 00:48:29;;;;;;;2.60;1.70;;;11.10;99.90;;;;;;5112504;27;20468;-80
2023/06/05 00:50:58;;;;;;;3.00;1.58;;;11.00;99.90;;;;;;5110611;27;20043;-80
2023/06/05 00:53:24;;;;;;;1.55;1.30;;;11.00;99.90;;;;;;5119511;27;20031;-79
2023/06/05 00:55:51;;;;;;;6.32;1.73;;;11.00;99.90;;;;;;5112256;27;20100;-80
2023/06/05 00:58:17;;;;;;;4.75;2.08;;;10.90;99.90;;;;;;5112449;27;20027;-80
2023/06/05 01:00:43;;;;;;;3.97;1.60;;;10.90;99.90;;;;;;5115873;27;20109;-80
2023/06/05 01:03:12;;;;;;;2.55;1.52;;;10.90;99.90;;;;;;5110458;27;20028;-80
2023/06/05 01:05:38;;;;;;;2.83;1.83;;;10.90;99.90;;;;;;5105836;27;20464;-80
2023/06/05 01:08:04;;;;;;;2.70;1.73;;;10.90;99.90;;;;;;5112949;27;20081;-80
2023/06/05 01:10:31;;;;;;;1.90;1.63;;;10.90;99.90;;;;;;5110878;27;20039;-80
2023/06/05 01:13:00;;;;;;;6.95;1.90;;;10.80;99.90;;;;;;5106718;27;20555;-80
2023/06/05 01:15:29;;;;;;;1.92;1.73;;;10.90;99.90;;;;;;5109603;27;20034;-80
2023/06/05 01:17:56;;;;;;;3.08;1.67;;;10.80;99.90;;;;;;5113269;27;20386;-80
2023/06/05 01:20:22;;;;;;;2.78;1.42;;;10.80;99.90;;;;;;5110963;27;20034;-80
2023/06/05 01:22:52;;;;;;;1.98;1.77;;;10.70;99.90;;;;;;5110848;27;20455;-80
2023/06/05 01:25:18;;;;;;;5.93;1.73;;;10.70;99.90;;;;;;5109802;27;20129;-80
2023/06/05 01:28:00;;;;;;;6.07;1.88;;;10.70;99.90;;;;;;5110380;27;20047;-80
2023/06/05 01:30:52;;;;;;;2.40;1.60;;;10.60;99.90;;;;;;5103167;27;20039;-79
2023/06/05 01:33:27;;;;;;;6.28;1.60;;;10.60;99.90;;;;;;5106347;27;20485;-80
2023/06/05 01:35:55;;;;;;;5.10;1.90;;;10.50;99.90;;;;;;5106541;27;20028;-79
2023/06/05 01:38:22;;;;;;;3.50;1.50;;;10.50;99.90;;;;;;5085682;28;20050;-80
2023/06/05 01:40:50;;;;;;;2.50;1.50;;;10.50;99.90;;;;;;5112236;27;20043;-80
2023/06/05 01:43:17;;;;;;;3.78;1.92;;;10.40;99.90;;;;;;5090918;28;20127;-80
2023/06/05 01:45:43;;;;;;;1.73;1.30;;;10.40;99.90;;;;;;5110086;27;20178;-80
2023/06/05 01:48:13;;;;;;;2.08;1.45;;;10.40;99.90;;;;;;5103186;27;20072;-80
2023/06/05 01:50:42;;;;;;;2.95;1.67;;;10.40;99.90;;;;;;5106009;27;20043;-80
2023/06/05 01:53:07;;;;;;;2.42;1.48;;;10.40;99.90;;;;;;5114452;27;20472;-79
2023/06/05 01:55:33;;;;;;;3.80;1.60;;;10.40;99.90;;;;;;5112493;27;20038;-80
2023/06/05 01:57:59;;;;;;;2.47;1.60;;;10.40;99.90;;;;;;5110531;27;20384;-80
2023/06/05 02:00:28;;;;;;;2.97;1.25;;;10.30;99.90;;;;;;5107100;27;20019;-80
2023/06/05 02:02:56;;;;;;;3.47;1.90;;;10.30;99.90;;;;;;5108257;27;20429;-82
2023/06/05 02:05:22;;;;;;;2.08;1.75;;;10.20;99.90;;;;;;5108484;27;20074;-79
2023/06/05 02:07:53;;;;;;;4.70;2.65;;;10.20;99.90;;;;;;5108868;27;20119;-80
2023/06/05 02:10:20;;;;;;;5.05;1.38;;;10.20;99.90;;;;;;5102714;27;20560;-81
2023/06/05 02:12:46;;;;;;;2.92;2.05;;;10.20;99.90;;;;;;5108789;27;20504;-82
2023/06/05 02:15:13;;;;;;;3.38;1.80;;;10.20;99.90;;;;;;5112083;27;20031;-82
2023/06/05 02:17:48;;;;;;;1.60;1.50;;;10.10;99.90;;;;;;5109650;27;20303;-80
2023/06/05 02:20:15;;;;;;;2.70;1.83;;;10.20;99.90;;;;;;5104692;27;20565;-82
2023/06/05 02:22:41;;;;;;;6.65;2.33;;;10.20;99.90;;;;;;5097777;27;20020;-82
2023/06/05 02:25:07;;;;;;;5.40;1.85;;;10.20;99.90;;;;;;5108739;27;20039;-80
2023/06/05 02:27:32;;;;;;;3.85;1.50;;;10.20;99.90;;;;;;5108193;27;20030;-79
2023/06/05 02:29:58;;;;;;;3.33;1.75;;;10.20;99.90;;;;;;5102345;27;20027;-80
2023/06/05 02:32:28;;;;;;;10.98;2.03;;;10.20;99.90;;;;;;5111715;27;20024;-80
2023/06/05 02:34:56;;;;;;;6.38;1.77;;;10.20;99.90;;;;;;5111900;27;20159;-80
2023/06/05 02:37:24;;;;;;;8.57;2.00;;;10.20;99.90;;;;;;5109614;27;20106;-80
2023/06/05 02:39:49;;;;;;;5.68;1.60;;;10.10;99.90;;;;;;5111637;27;20114;-80
2023/06/05 02:42:16;;;;;;;7.97;1.60;;;10.10;99.90;;;;;;5112322;27;20564;-80
2023/06/05 02:44:42;;;;;;;7.63;2.00;;;10.10;99.90;;;;;;5110196;27;20039;-80
2023/06/05 02:47:07;;;;;;;5.05;1.63;;;10.10;99.90;;;;;;5111635;27;20050;-79
2023/06/05 02:49:33;;;;;;;7.53;1.73;;;10.10;99.90;;;;;;5100710;27;20012;-80
2023/06/05 02:51:58;;;;;;;2.38;1.60;;;10.20;99.90;;;;;;5109778;27;20135;-79
2023/06/05 02:54:27;;;;;;;2.42;1.48;;;10.10;99.90;;;;;;5111741;27;20446;-81
2023/06/05 02:56:53;;;;;;;4.03;1.80;;;10.10;99.90;;;;;;5115785;27;20034;-82
2023/06/05 02:59:19;;;;;;;2.38;1.65;;;10.00;99.90;;;;;;5109179;27;20529;-80
2023/06/05 03:01:47;;;;;;;2.88;1.65;;;10.00;99.90;;;;;;5099122;27;20024;-81
2023/06/05 03:04:14;;;;;;;3.08;1.70;;;10.00;99.90;;;;;;5111956;27;20031;-80
2023/06/05 03:06:43;;;;;;;2.17;1.45;;;10.00;99.90;;;;;;5112086;27;20395;-80
2023/06/05 03:09:09;;;;;;;3.35;1.88;;;10.00;99.90;;;;;;5109438;27;20092;-80
2023/06/05 03:11:34;;;;;;;3.05;1.73;;;9.90;99.90;;;;;;5109509;27;20040;-79
2023/06/05 03:14:00;;;;;;;3.10;1.65;;;9.90;99.90;;;;;;5107314;28;20031;-79
2023/06/05 03:16:32;;;;;;;3.22;2.00;;;9.90;99.90;;;;;;5108501;27;20030;-81
2023/06/05 03:18:58;;;;;;;3.15;1.70;;;9.80;99.90;;;;;;5089300;28;20377;-82
2023/06/05 03:21:23;;;;;;;3.33;1.60;;;9.80;99.90;;;;;;5110765;27;20030;-82
2023/06/05 03:23:49;;;;;;;5.32;1.92;;;9.80;99.90;;;;;;5107243;28;20115;-81
2023/06/05 03:26:15;;;;;;;1.73;1.40;;;9.80;99.90;;;;;;5109943;27;20062;-81
2023/06/05 03:28:41;;;;;;;3.08;1.90;;;9.70;99.90;;;;;;5110571;28;20065;-79
2023/06/05 03:31:06;;;;;;;2.53;1.73;;;9.70;99.90;;;;;;5101296;28;20040;-79
2023/06/05 03:33:35;;;;;;;2.85;2.03;;;9.70;99.90;;;;;;5090715;28;20024;-80
2023/06/05 03:36:01;;;;;;;1.95;1.60;;;9.70;99.90;;;;;;5108659;28;20161;-79
2023/06/05 03:38:27;;;;;;;3.47;1.65;;;9.70;99.90;;;;;;5106956;28;20145;-80
2023/06/05 03:40:53;;;;;;;3.20;1.63;;;9.70;99.90;;;;;;5111004;28;20107;-81
2023/06/05 03:43:19;;;;;;;2.10;1.40;;;9.70;99.90;;;;;;5108148;28;20026;-79
2023/06/05 03:45:46;;;;;;;3.85;2.28;;;9.70;99.90;;;;;;5115771;28;20404;-80
2023/06/05 03:48:13;;;;;;;2.78;1.90;;;9.70;99.90;;;;;;5116248;28;20044;-79
2023/06/05 03:50:39;;;;;;;2.85;1.88;;;9.60;99.90;;;;;;5113888;28;20523;-79
2023/06/05 03:53:04;;;;;;;5.80;3.47;;;9.60;99.90;;;;;;5109647;28;20080;-79
2023/06/05 03:55:41;;;;;;;3.33;1.83;;;9.70;99.90;;;;;;5106840;28;20028;-80
2023/06/05 03:58:09;;;;;;;3.10;1.77;;;9.60;99.90;;;;;;5101594;27;20404;-80
2023/06/05 04:00:35;;;;;;;3.30;2.22;;;9.70;99.90;;;;;;5100637;28;20016;-79
2023/06/05 04:03:00;;;;;;;3.80;1.60;;;9.70;99.90;;;;;;5107182;27;20546;-80
2023/06/05 04:05:26;;;;;;;4.60;1.83;;;9.70;99.90;;;;;;5106951;27;20046;-79
2023/06/05 04:07:51;;;;;;;2.50;1.70;;;9.80;99.90;;;;;;5112605;27;20024;-79
2023/06/05 04:10:17;;;;;;;3.72;1.95;;;9.90;99.90;;;;;;5106920;27;20024;-80
2023/06/05 04:12:42;;;;;;;2.08;1.88;;;9.90;99.90;;;;;;5108638;27;20462;-80
2023/06/05 04:15:09;;;;;;;4.93;2.13;;;10.00;99.90;;;;;;5106184;27;20400;-79
2023/06/05 04:17:37;;;;;;;3.10;1.92;;;10.00;99.90;;;;;;5110190;27;20112;-80
2023/06/05 04:20:03;;;;;;;3.95;1.80;;;10.10;99.90;;;;;;5105763;27;20061;-79
2023/06/05 04:22:29;;;;;;;2.80;1.92;;;10.10;99.90;;;;;;5115432;27;20035;-80
2023/06/05 04:24:54;;;;;;;3.50;2.03;;;10.20;99.90;;;;;;5114637;27;20031;-80
2023/06/05 04:27:20;;;;;;;4.70;3.15;;;10.20;99.90;;;;;;5121166;27;20054;-79
2023/06/05 04:29:46;;;;;;;3.72;1.80;;;10.20;99.90;;;;;;5108783;28;20369;-80
2023/06/05 04:32:16;;;;;;;2.42;1.70;;;10.30;99.90;;;;;;5108946;27;20039;-80
2023/06/05 04:34:41;;;;;;;4.82;1.70;;;10.30;99.90;;;;;;5113940;27;20051;-80
2023/06/05 04:37:07;;;;;;;6.53;2.42;;;10.40;99.90;;;;;;5114701;27;20527;-80
2023/06/05 04:39:33;;;;;;;2.90;1.85;;;10.50;99.90;;;;;;5123564;27;20027;-80
2023/06/05 04:41:58;;;;;;;2.20;1.60;;;10.50;99.90;;;;;;5115108;27;20429;-80
2023/06/05 04:44:24;;;;;;;4.40;1.75;;;10.60;99.90;;;;;;5111276;27;20026;-80
2023/06/05 04:46:52;;;;;;;7.78;2.40;;;10.70;99.90;;;;;;5112589;27;20054;-79
2023/06/05 04:49:18;;;;;;;3.00;1.95;;;10.80;99.90;;;;;;5104298;27;20031;-80
2023/06/05 04:51:44;;;;;;;5.47;1.95;;;10.80;99.90;;;;;;5108651;27;20252;-80
2023/06/05 04:54:10;;;;;;;4.38;1.75;;;10.90;99.90;;;;;;5104681;27;20051;-80
2023/06/05 04:56:38;;;;;;;2.85;2.00;;;11.00;99.90;;;;;;5109123;27;20384;-80
2023/06/05 04:59:03;;;;;;;1.25;1.13;;;11.10;99.90;;;;;;5105029;27;20466;-80
2023/06/05 05:01:29;;;;;;;4.18;1.58;;;11.20;99.90;;;;;;5107792;27;20181;-80
2023/06/05 05:03:55;;;;;;;5.57;2.00;;;11.20;99.90;;;;;;5110482;27;20027;-79
2023/06/05 05:06:21;;;;;;;2.33;1.58;;;11.30;99.90;;;;;;5106332;27;20012;-80
2023/06/05 05:08:50;;;;;;;3.05;1.65;;;11.40;99.90;;;;;;5108906;27;20519;-80
2023/06/05 05:11:17;;;;;;;3.53;2.05;;;11.50;99.90;;;;;;5108770;27;20050;-80
2023/06/05 05:13:43;;;;;;;3.28;1.63;;;11.60;99.90;;;;;;5120235;27;20027;-80
2023/06/05 05:16:09;;;;;;;3.38;1.92;;;11.60;99.90;;;;;;5115250;27;20027;-80
2023/06/05 05:18:36;;;;;;;2.65;1.70;;;11.70;99.90;;;;;;5112635;27;20027;-80
2023/06/05 05:21:02;;;;;;;3.72;1.77;;;11.80;99.90;;;;;;5116327;27;20036;-80
2023/06/05 05:23:28;;;;;;;8.55;2.55;;;11.90;99.90;;;;;;5117949;27;21330;-80
2023/06/05 05:25:54;;;;;;;3.63;1.65;;;12.00;99.90;;;;;;5114884;27;20328;-80
2023/06/05 05:28:19;;;;;;;3.80;2.22;;;12.10;99.90;;;;;;5109247;27;20464;-80
2023/06/05 05:30:45;;;;;;;3.25;1.73;;;12.20;99.90;;;;;;5113624;27;20401;-80
2023/06/05 05:33:10;;;;;;;5.88;1.88;;;12.30;99.90;;;;;;5118547;27;20030;-80
2023/06/05 05:35:36;;;;;;;3.67;1.70;;;12.40;99.90;;;;;;5108677;27;20015;-80
2023/06/05 05:38:01;;;;;;;6.55;2.10;;;12.50;99.90;;;;;;5113037;27;20442;-80
2023/06/05 05:40:27;;;;;;;3.15;1.73;;;12.60;99.90;;;;;;5109432;27;20077;-80
2023/06/05 05:42:53;;;;;;;4.57;2.00;;;12.70;99.90;;;;;;5107322;27;20414;-79
2023/06/05 05:45:18;;;;;;;9.40;2.00;;;12.80;99.90;;;;;;5102521;27;20370;-80
2023/06/05 05:47:44;;;;;;;5.10;1.92;;;12.80;99.90;;;;;;5110407;27;20027;-80
2023/06/05 05:50:09;;;;;;;3.03;2.00;;;12.90;99.90;;;;;;5113885;27;20042;-80
2023/06/05 05:52:35;;;;;;;5.55;2.38;;;13.00;99.90;;;;;;5115666;27;20487;-80
2023/06/05 05:55:03;;;;;;;10.43;1.90;;;13.20;99.90;;;;;;5107503;27;20445;-80
2023/06/05 05:57:28;;;;;;;5.65;1.80;;;13.20;99.90;;;;;;5110406;27;20032;-79
2023/06/05 05:59:54;;;;;;;3.15;1.98;;;13.30;99.90;;;;;;5109086;27;20085;-80
2023/06/05 06:02:21;;;;;;;7.70;2.08;;;13.40;99.90;;;;;;5111762;27;20365;-80
2023/06/05 06:04:47;;;;;;;3.65;1.80;;;13.40;99.90;;;;;;5117068;27;20028;-80
2023/06/05 06:07:12;;;;;;;6.82;2.00;;;13.50;99.90;;;;;;5116930;27;20027;-79
2023/06/05 06:09:39;;;;;;;6.78;1.98;;;13.50;99.90;;;;;;5116209;27;20161;-79
2023/06/05 06:12:05;;;;;;;3.17;1.55;;;13.60;99.90;;;;;;5106728;27;20047;-80
2023/06/05 06:14:32;;;;;;;5.20;2.22;;;13.70;99.90;;;;;;5103349;27;20074;-80
2023/06/05 06:16:58;;;;;;;3.88;2.00;;;13.70;99.90;;;;;;5112231;27;20096;-80
2023/06/05 06:19:24;;;;;;;6.55;2.15;;;13.80;99.90;;;;;;5119870;27;20051;-80
2023/06/05 06:21:52;;;;;;;3.72;2.20;;;14.00;99.90;;;;;;5107739;28;20049;-80
2023/06/05 06:24:22;;;;;;;4.43;2.00;;;14.00;99.90;;;;;;5113199;27;20434;-80
2023/06/05 06:26:48;;;;;;;5.85;1.95;;;14.10;99.90;;;;;;5107458;27;20462;-80
2023/06/05 06:29:18;;;;;;;2.15;1.67;;;14.10;99.90;;;;;;5111757;27;20020;-80
2023/06/05 06:31:43;;;;;;;4.50;1.73;;;14.10;99.90;;;;;;5115949;27;20084;-80
2023/06/05 06:34:10;;;;;;;5.60;2.03;;;14.20;99.90;;;;;;5110730;27;20032;-80
2023/06/05 06:36:40;;;;;;;3.42;1.63;;;14.20;99.90;;;;;;5094293;28;20028;-80
2023/06/05 06:39:07;;;;;;;6.40;1.85;;;14.30;99.90;;;;;;5109245;27;20092;-80
2023/06/05 06:41:35;;;;;;;3.42;1.92;;;14.40;99.90;;;;;;5107631;27;20031;-80
2023/06/05 06:44:01;;;;;;;2.70;1.77;;;14.40;99.90;;;;;;5108404;27;20035;-80
2023/06/05 06:46:27;;;;;;;7.65;2.45;;;14.50;99.90;;;;;;5110921;27;20041;-79
2023/06/05 06:48:52;;;;;;;5.32;2.28;;;14.60;99.90;;;;;;5116066;27;20096;-80
2023/06/05 06:51:18;;;;;;;4.22;1.80;;;14.70;99.90;;;;;;5107880;27;20393;-79
2023/06/05 06:53:44;;;;;;;2.55;1.85;;;14.80;99.90;;;;;;5118559;27;20051;-80
2023/06/05 06:56:15;;;;;;;7.85;1.65;;;14.90;99.90;;;;;;5115547;27;20031;-79
2023/06/05 06:58:40;;;;;;;4.13;1.88;;;14.90;99.90;;;;;;5106624;27;20031;-79
2023/06/05 07:01:06;;;;;;;5.43;1.98;;;15.00;99.90;;;;;;5109171;27;20029;-79
2023/06/05 07:03:31;;;;;;;9.10;2.72;;;15.00;99.90;;;;;;5108813;27;20028;-80
2023/06/05 07:05:57;;;;;;;5.25;2.10;;;15.10;99.90;;;;;;5085455;28;20032;-80
2023/06/05 07:08:23;;;;;;;8.15;2.03;;;15.20;99.90;;;;;;5097933;28;20052;-81
2023/06/05 07:10:49;;;;;;;4.43;2.10;;;15.30;99.90;;;;;;5108966;27;20062;-82
2023/06/05 07:13:15;;;;;;;5.93;2.20;;;15.30;99.90;;;;;;5108554;27;20481;-83
2023/06/05 07:15:41;;;;;;;3.85;2.08;;;15.40;97.50;;;;;;5127298;27;20019;-82
2023/06/05 07:18:06;;;;;;;10.80;2.45;;;15.50;99.90;;;;;;5115223;27;20109;-82
2023/06/05 07:20:32;;;;;;;8.55;2.17;;;15.50;99.90;;;;;;5103845;28;20111;-83
2023/06/05 07:22:59;;;;;;;2.95;1.80;;;15.50;99.90;;;;;;5120072;27;20396;-83
2023/06/05 07:25:28;;;;;;;5.43;1.98;;;15.50;99.90;;;;;;5119576;27;20445;-82
2023/06/05 07:27:53;;;;;;;4.57;2.08;;;15.60;99.90;;;;;;5106959;28;20036;-82
2023/06/05 07:30:19;;;;;;;9.02;2.17;;;15.60;99.90;;;;;;5107439;28;20055;-83
2023/06/05 07:32:45;;;;;;;27.95;2.40;;;15.60;99.90;;;;;;5098944;27;20059;-82
2023/06/05 07:35:12;;;;;;;3.97;2.17;;;15.70;99.90;;;;;;5118428;27;20167;-82
2023/06/05 07:37:38;;;;;;;3.53;2.08;;;15.80;99.90;;;;;;5117788;27;20023;-83
2023/06/05 07:40:05;;;;;;;8.00;2.00;;;15.90;99.90;;;;;;5120586;27;20031;-83
2023/06/05 07:42:31;;;;;;;9.63;2.47;;;15.90;99.90;;;;;;5120204;27;20113;-83
2023/06/05 07:44:57;;;;;;;6.43;2.40;;;16.00;99.90;;;;;;5122353;27;20052;-83
2023/06/05 07:47:22;;;;;;;14.80;2.25;;;16.10;99.90;;;;;;5124029;27;20039;-82
2023/06/05 07:50:03;;;;;;;12.60;2.13;;;16.10;99.90;;;;;;5122221;27;20110;-84
2023/06/05 07:52:30;;;;;;;129.02;5.93;;;16.20;99.90;;;;;;5123667;27;20035;-84
2023/06/05 07:54:56;;;;;;;97.00;5.18;;;16.20;99.90;;;;;;5120323;27;20040;-83
2023/06/05 07:57:23;;;;;;;48.33;4.28;;;16.30;99.90;;;;;;5102620;27;20547;-84
2023/06/05 07:59:50;;;;;;;21.23;2.88;;;16.40;99.90;;;;;;5118833;27;20103;-83
2023/06/05 08:02:17;;;;;;;25.42;2.80;;;16.40;99.90;;;;;;5122268;27;20024;-83
2023/06/05 08:04:44;;;;;;;15.60;2.42;;;16.40;99.90;;;;;;5130513;27;20172;-82
2023/06/05 08:07:11;;;;;;;10.13;2.40;;;16.50;99.90;;;;;;5112662;27;20027;-82
2023/06/05 08:09:37;;;;;;;14.05;2.17;;;16.60;99.90;;;;;;5113513;27;20028;-83
2023/06/05 08:12:04;;;;;;;7.80;2.67;;;16.60;99.90;;;;;;5122284;27;20061;-83
2023/06/05 08:14:29;;;;;;;71.30;5.65;;;16.70;99.90;;;;;;5111696;27;20127;-82
2023/06/05 08:16:58;;;;;;;35.50;3.15;;;16.80;99.90;;;;;;5111847;27;20118;-81
2023/06/05 08:19:24;;;;;;;106.97;6.18;;;17.00;99.90;;;;;;5116221;27;20015;-81
2023/06/05 08:21:59;;;;;;;21.67;2.40;;;17.00;99.90;;;;;;5119873;27;20432;-81
2023/06/05 08:24:26;;;;;;;17.13;2.28;;;17.10;99.90;;;;;;5115262;27;20477;-81
2023/06/05 08:26:52;;;;;;;4.57;1.80;;;17.10;99.90;;;;;;5107725;27;20431;-81
2023/06/05 08:29:18;;;;;;;7.30;2.47;;;17.20;99.90;;;;;;5109164;27;20035;-81
2023/06/05 08:31:43;;;;;;;4.47;2.05;;;17.20;99.90;;;;;;5123849;27;20035;-81
2023/06/05 08:34:10;;;;;;;10.10;2.35;;;17.30;99.90;;;;;;5120713;27;20068;-81
2023/06/05 08:36:36;;;;;;;6.53;2.13;;;17.40;99.90;;;;;;5102183;27;20023;-81
2023/06/05 08:39:02;;;;;;;9.13;2.08;;;17.50;99.90;;;;;;5118564;27;20144;-82
2023/06/05 08:41:30;;;;;;;2.35;1.75;;;17.50;99.90;;;;;;5128820;27;20508;-81
2023/06/05 08:43:56;;;;;;;5.35;2.17;;;17.60;99.90;;;;;;5117972;27;20063;-81
2023/06/05 08:46:22;;;;;;;5.70;1.90;;;17.70;99.90;;;;;;5094254;28;20440;-81
2023/06/05 08:48:58;;;;;;;2.30;1.60;;;17.70;99.90;;;;;;5124619;27;20035;-81
2023/06/05 08:51:25;;;;;;;6.80;2.33;;;17.70;99.90;;;;;;5117117;27;20048;-81
2023/06/05 08:54:03;;;;;;;5.35;2.10;;;17.80;99.90;;;;;;5114840;27;20031;-82
2023/06/05 08:56:31;;;;;;;5.45;2.42;;;17.90;99.90;;;;;;5113639;27;20493;-82
2023/06/05 08:58:57;;;;;;;9.00;2.33;;;18.00;97.90;;;;;;5120834;27;20031;-82
2023/06/05 09:01:23;;;;;;;3.67;2.35;;;18.10;97.20;;;;;;5116340;27;20055;-82
2023/06/05 09:03:50;;;;;;;3.83;1.52;;;18.20;95.80;;;;;;5113545;27;20066;-82
2023/06/05 09:06:16;;;;;;;5.28;1.98;;;18.20;93.90;;;;;;5100484;27;20449;-82
2023/06/05 09:08:42;;;;;;;8.05;2.15;;;18.30;95.70;;;;;;5111192;27;20047;-82
2023/06/05 09:11:29;;;;;;;4.40;2.05;;;18.40;95.20;;;;;;5128081;27;20104;-82
2023/06/05 09:13:57;;;;;;;5.82;1.88;;;18.40;97.90;;;;;;5119491;27;20476;-82
2023/06/05 09:16:32;;;;;;;8.25;2.17;;;18.60;97.60;;;;;;5118234;27;20031;-82
2023/06/05 09:18:58;;;;;;;12.10;1.85;;;18.60;95.40;;;;;;5103603;27;20409;-82
2023/06/05 09:21:30;;;;;;;11.70;2.05;;;18.60;95.40;;;;;;5105559;27;20035;-81
2023/06/05 09:24:14;;;;;;;8.23;2.30;;;18.70;95.50;;;;;;5105536;27;20079;-82
2023/06/05 09:26:47;;;;;;;6.03;1.98;;;18.80;95.00;;;;;;5111653;27;20051;-82
2023/06/05 09:29:13;;;;;;;5.70;2.22;;;18.80;95.90;;;;;;5120945;27;20024;-82
2023/06/05 09:31:50;;;;;;;5.85;2.53;;;18.90;96.80;;;;;;5119796;27;20574;-82
2023/06/05 09:34:30;;;;;;;3.42;2.05;;;18.90;95.40;;;;;;5114647;27;20038;-81
2023/06/05 09:36:58;;;;;;;3.65;2.00;;;19.00;87.20;;;;;;5122990;27;20030;-82
2023/06/05 09:39:27;;;;;;;7.38;2.13;;;19.10;83.30;;;;;;5113929;27;20027;-81
2023/06/05 09:41:54;;;;;;;3.90;1.95;;;19.10;88.70;;;;;;5112938;27;20024;-81
2023/06/05 09:44:20;;;;;;;7.82;1.90;;;19.20;90.20;;;;;;5126902;27;20042;-82
2023/06/05 09:46:53;;;;;;;9.48;2.00;;;19.20;89.20;;;;;;5118580;27;20083;-82
2023/06/05 09:49:19;;;;;;;7.95;1.88;;;19.30;85.00;;;;;;5119235;27;20088;-82
2023/06/05 09:51:46;;;;;;;2.65;1.52;;;19.30;81.50;;;;;;5116500;27;20125;-81
2023/06/05 09:54:12;;;;;;;3.65;1.70;;;19.40;84.10;;;;;;5120783;27;20389;-82
2023/06/05 09:56:43;;;;;;;3.08;1.95;;;19.50;80.20;;;;;;5122180;27;20029;-82
2023/06/05 09:59:09;;;;;;;6.75;1.88;;;19.50;81.60;;;;;;5109124;27;20087;-82
2023/06/05 10:01:36;;;;;;;7.82;2.13;;;19.50;84.20;;;;;;5111853;27;20274;-82
2023/06/05 10:04:13;;;;;;;7.80;1.85;;;19.60;80.70;;;;;;5111775;27;20091;-82
2023/06/05 10:06:40;;;;;;;12.45;2.75;;;19.70;77.90;;;;;;5111575;27;20024;-82
2023/06/05 10:09:07;;;;;;;8.93;2.42;;;19.70;78.70;;;;;;5115371;27;20024;-81
2023/06/05 10:11:33;;;;;;;13.07;2.15;;;19.80;79.00;;;;;;5122497;27;20039;-82
2023/06/05 10:13:59;;;;;;;5.57;1.98;;;19.90;69.40;;;;;;5124893;27;20412;-83
2023/06/05 10:16:28;;;;;;;9.75;2.08;;;19.90;64.60;;;;;;5114176;27;20035;-81
2023/06/05 10:18:59;;;;;;;5.88;2.13;;;20.00;64.50;;;;;;5110593;27;20035;-81
2023/06/05 10:21:25;;;;;;;3.78;1.45;;;20.10;65.70;;;;;;5115686;27;20038;-81
2023/06/05 10:23:57;;;;;;;10.50;1.55;;;20.10;63.60;;;;;;5115382;27;20365;-82
2023/06/05 10:26:38;;;;;;;3.95;2.33;;;20.20;63.00;;;;;;5114636;27;20442;-80
2023/06/05 10:29:18;;;;;;;4.72;1.98;;;20.20;62.00;;;;;;5116996;27;20392;-82
2023/06/05 10:32:11;;;;;;;2.63;1.52;;;20.20;64.20;;;;;;5104842;27;20126;-83
2023/06/05 10:34:50;;;;;;;2.85;1.75;;;20.30;59.40;;;;;;5103965;27;20031;-81
2023/06/05 10:37:39;;;;;;;7.18;2.15;;;20.40;55.00;;;;;;5102534;27;20041;-82
2023/06/05 10:40:10;;;;;;;8.77;2.00;;;20.60;53.90;;;;;;5101725;27;20084;-81
2023/06/05 10:42:37;;;;;;;11.68;2.30;;;20.60;55.60;;;;;;5107928;27;20035;-82
2023/06/05 10:45:03;;;;;;;3.45;1.25;;;20.70;54.60;;;;;;5112255;27;20075;-82
2023/06/05 10:47:37;;;;;;;8.25;2.00;;;20.70;52.20;;;;;;5107299;27;20016;-81
2023/06/05 10:50:21;;;;;;;11.15;2.08;;;20.80;51.30;;;;;;5116409;27;20024;-81
2023/06/05 10:52:49;;;;;;;6.38;1.98;;;20.80;49.50;;;;;;5114910;27;20134;-81
2023/06/05 10:55:16;;;;;;;2.45;1.58;;;20.70;49.50;;;;;;5116762;27;20110;-81
2023/06/05 10:58:00;;;;;;;4.63;1.67;;;20.70;50.50;;;;;;5094030;27;20023;-80
2023/06/05 11:00:26;;;;;;;5.88;1.60;;;20.70;52.50;;;;;;5111352;27;20023;-81
2023/06/05 11:02:53;;;;;;;9.60;1.88;;;20.70;52.90;;;;;;5111051;27;20031;-81
2023/06/05 11:05:19;;;;;;;9.27;1.65;;;20.80;52.20;;;;;;5109873;27;20032;-81
2023/06/05 11:07:45;;;;;;;2.78;1.67;;;20.80;51.20;;;;;;5110978;27;20492;-81
2023/06/05 11:10:21;;;;;;;3.53;1.80;;;20.90;50.40;;;;;;5116089;27;20024;-81
2023/06/05 11:12:46;;;;;;;8.45;2.00;;;20.90;49.70;;;;;;5115764;27;20039;-81
2023/06/05 11:15:24;;;;;;;6.90;2.35;;;20.90;50.60;;;;;;5111609;27;20050;-81
2023/06/05 11:17:50;;;;;;;6.70;2.25;;;21.00;50.90;;;;;;5104836;28;20092;-82
2023/06/05 11:20:24;;;;;;;8.38;1.80;;;21.10;49.60;;;;;;5121345;27;20031;-81
2023/06/05 11:22:52;;;;;;;3.80;1.98;;;21.10;51.30;;;;;;5107801;27;20076;-82
2023/06/05 11:25:21;;;;;;;5.30;2.00;;;21.20;52.90;;;;;;5121913;27;20407;-81
2023/06/05 11:27:51;;;;;;;5.13;2.40;;;21.30;52.30;;;;;;5115114;27;20027;-80
2023/06/05 11:30:19;;;;;;;5.85;1.92;;;21.40;49.50;;;;;;5102248;28;20499;-81
2023/06/05 11:32:45;;;;;;;8.77;1.63;;;21.40;49.10;;;;;;5110549;28;20035;-81
2023/06/05 11:35:11;;;;;;;9.88;2.13;;;21.40;48.90;;;;;;5113032;28;20023;-81
2023/06/05 11:37:39;;;;;;;6.53;1.98;;;21.30;48.30;;;;;;5116045;28;20050;-85
2023/06/05 11:40:09;;;;;;;3.25;2.08;;;21.30;48.70;;;;;;5107229;28;20031;-81
2023/06/05 11:42:39;;;;;;;6.25;2.53;;;21.30;47.60;;;;;;5114382;28;20123;-82
2023/06/05 11:45:11;;;;;;;5.45;2.30;;;21.30;47.90;;;;;;5115479;28;20526;-81
2023/06/05 11:47:38;;;;;;;7.43;2.20;;;21.30;47.50;;;;;;5107145;28;20128;-82
2023/06/05 11:50:11;;;;;;;4.97;2.20;;;21.40;47.00;;;;;;5117095;28;20483;-82
2023/06/05 11:52:37;;;;;;;5.43;2.00;;;21.40;46.90;;;;;;5118040;28;20055;-82
2023/06/05 11:55:18;;;;;;;8.00;2.60;;;21.40;48.50;;;;;;5112415;28;20031;-81
2023/06/05 11:57:46;;;;;;;11.80;1.90;;;21.40;49.60;;;;;;5121763;28;20027;-82
2023/06/05 12:00:13;;;;;;;7.13;2.00;;;21.50;50.00;;;;;;5092245;28;20118;-82
2023/06/05 12:02:41;;;;;;;11.60;2.47;;;21.60;49.20;;;;;;5117725;28;20031;-81
2023/06/05 12:05:10;;;;;;;3.92;2.05;;;21.60;48.80;;;;;;5115759;28;20028;-81
2023/06/05 12:07:37;;;;;;;3.80;1.90;;;21.60;48.20;;;;;;5106589;28;20023;-83
2023/06/05 12:10:03;;;;;;;10.98;2.17;;;21.70;48.20;;;;;;5106727;28;20520;-82
2023/06/05 12:12:29;;;;;;;22.52;2.53;;;21.70;48.20;;;;;;5109680;28;20549;-82
2023/06/05 12:14:56;;;;;;;7.55;2.17;;;21.80;45.80;;;;;;5110252;28;20027;-81
2023/06/05 12:17:24;;;;;;;6.22;2.20;;;21.80;45.40;;;;;;5100382;28;20031;-82
2023/06/05 12:19:53;;;;;;;5.10;2.20;;;21.70;46.70;;;;;;5114118;28;20027;-81
2023/06/05 12:22:19;;;;;;;41.35;4.05;;;21.70;48.20;;;;;;5114354;27;20043;-81
2023/06/05 12:24:45;;;;;;;5.43;1.98;;;21.80;47.20;;;;;;5113382;27;20023;-81
2023/06/05 12:27:11;;;;;;;2.58;1.70;;;21.90;45.80;;;;;;5111723;27;20050;-82
2023/06/05 12:29:39;;;;;;;5.32;2.03;;;22.00;46.40;;;;;;5110767;27;20032;-82
2023/06/05 12:32:22;;;;;;;8.50;2.30;;;22.00;46.50;;;;;;5106927;27;21508;-82
2023/06/05 12:34:51;;;;;;;5.07;2.08;;;22.00;45.70;;;;;;5115952;27;20456;-81
2023/06/05 12:37:37;;;;;;;5.30;2.15;;;22.10;45.80;;;;;;5110799;27;20020;-81
2023/06/05 12:40:09;;;;;;;8.75;2.00;;;22.10;44.70;;;;;;5112955;27;20027;-81
2023/06/05 12:42:37;;;;;;;4.35;1.85;;;22.10;43.40;;;;;;5118517;27;20091;-81
2023/06/05 12:45:04;;;;;;;4.00;2.22;;;22.10;43.60;;;;;;5109736;27;20024;-82
2023/06/05 12:47:29;;;;;;;2.90;1.85;;;22.10;43.70;;;;;;5109276;27;20027;-82
2023/06/05 12:49:56;;;;;;;4.07;1.70;;;22.10;44.20;;;;;;5116979;27;20046;-85